Time;durP1;ratioP1;P1;durP2;ratioP2;P2;SDS_P1;SDS_P2;PMS_P1;PMS_P2;Temp;Humidity;BMP_temperature;BMP_pressure;BME280_temperature;BME280_humidity;BME280_pressure;Samples;Min_cycle;Max_cycle;Signal;HPM_P1;HPM_P2
2021/06/10 00:00:18;;;;;;;1.43;1.33;;;;;;;18.60;100.00;100624.66;4983377;28;20509;-52
2021/06/10 00:02:46;;;;;;;3.63;1.80;;;;;;;18.65;99.94;100636.09;4987261;28;20454;-52
2021/06/10 00:05:13;;;;;;;0.47;0.30;;;;;;;18.43;100.00;100628.31;5002944;28;20454;-52
2021/06/10 00:07:40;;;;;;;0.50;0.30;;;;;;;18.66;100.00;100624.38;4981590;28;20478;-53
2021/06/10 00:10:12;;;;;;;0.53;0.43;;;;;;;18.58;100.00;100624.75;4981886;28;20470;-53
2021/06/10 00:12:40;;;;;;;0.97;0.97;;;;;;;18.66;100.00;100626.19;4982567;28;20540;-53
2021/06/10 00:15:10;;;;;;;0.40;0.20;;;;;;;18.35;100.00;100623.34;4981635;28;20498;-53
2021/06/10 00:17:37;;;;;;;0.50;0.40;;;;;;;18.05;100.00;100628.56;4986520;28;21007;-53
2021/06/10 00:20:08;;;;;;;1.43;1.03;;;;;;;17.75;100.00;100624.84;4987979;28;20557;-53
2021/06/10 00:22:34;;;;;;;1.60;1.50;;;;;;;18.13;100.00;100621.94;4983826;28;20449;-52
2021/06/10 00:25:02;;;;;;;1.67;1.67;;;;;;;17.99;100.00;100617.28;4981614;28;20509;-52
2021/06/10 00:27:29;;;;;;;0.67;0.60;;;;;;;18.09;100.00;100623.91;4985202;28;20451;-52
2021/06/10 00:29:55;;;;;;;1.27;1.17;;;;;;;18.10;100.00;100627.47;5004447;28;20816;-52
2021/06/10 00:32:22;;;;;;;0.70;0.60;;;;;;;18.15;100.00;100625.41;4984944;28;20926;-52
2021/06/10 00:34:49;;;;;;;0.60;0.60;;;;;;;18.17;100.00;100634.25;4987817;28;20462;-53
2021/06/10 00:37:15;;;;;;;0.97;0.97;;;;;;;18.28;100.00;100627.34;4985609;28;20528;-53
2021/06/10 00:39:42;;;;;;;0.50;0.43;;;;;;;18.05;100.00;100633.09;4980754;28;20500;-52
2021/06/10 00:42:09;;;;;;;0.50;0.30;;;;;;;18.23;100.00;100629.44;4983840;28;20505;-52
2021/06/10 00:44:36;;;;;;;0.53;0.47;;;;;;;17.74;100.00;100631.19;4987582;28;20454;-53
2021/06/10 00:47:03;;;;;;;1.63;1.63;;;;;;;18.06;100.00;100630.31;4985484;28;20492;-53
2021/06/10 00:49:30;;;;;;;6.20;2.50;;;;;;;17.99;100.00;100638.81;4980514;28;20825;-52
2021/06/10 00:51:57;;;;;;;0.50;0.40;;;;;;;18.12;100.00;100634.50;4983128;28;20498;-53
2021/06/10 00:54:24;;;;;;;0.40;0.30;;;;;;;18.00;100.00;100641.41;4987549;28;20816;-52
2021/06/10 00:56:52;;;;;;;0.50;0.30;;;;;;;17.98;100.00;100642.47;4977357;28;20454;-52
2021/06/10 00:59:18;;;;;;;3.00;2.80;;;;;;;17.59;100.00;100637.31;4986195;28;20557;-51
2021/06/10 01:01:45;;;;;;;0.40;0.20;;;;;;;17.30;100.00;100645.06;4985793;28;20893;-52
2021/06/10 01:04:12;;;;;;;0.40;0.20;;;;;;;17.77;100.00;100644.44;4980692;28;20461;-52
2021/06/10 01:06:52;;;;;;;0.60;0.50;;;;;;;17.72;100.00;100647.41;4981824;28;20451;-53
2021/06/10 01:09:24;;;;;;;0.50;0.50;;;;;;;17.89;100.00;100643.81;4986354;28;20458;-52
2021/06/10 01:12:17;;;;;;;1.33;1.23;;;;;;;17.74;100.00;100650.00;4985737;28;20959;-52
2021/06/10 01:14:54;;;;;;;0.70;0.70;;;;;;;17.72;100.00;100652.78;4986220;28;20453;-52
2021/06/10 01:17:23;;;;;;;3.17;0.87;;;;;;;17.84;100.00;100651.25;4981385;28;20477;-52
2021/06/10 01:20:03;;;;;;;4.10;2.90;;;;;;;18.03;100.00;100645.75;4980111;28;20514;-52
2021/06/10 01:22:39;;;;;;;1.17;0.93;;;;;;;17.79;100.00;100652.44;4983923;28;20980;-52
2021/06/10 01:25:39;;;;;;;0.50;0.40;;;;;;;17.86;100.00;100646.66;4986756;28;20446;-53
2021/06/10 01:28:11;;;;;;;1.40;1.30;;;;;;;18.00;100.00;100649.50;4982149;28;20450;-52
2021/06/10 01:30:43;;;;;;;0.97;0.97;;;;;;;17.88;100.00;100647.44;5003630;28;20492;-52
2021/06/10 01:33:16;;;;;;;16.63;1.40;;;;;;;17.68;100.00;100656.59;4979962;28;20493;-52
2021/06/10 01:35:52;;;;;;;1.17;1.17;;;;;;;17.67;100.00;100656.59;4982512;28;20450;-53
2021/06/10 01:38:20;;;;;;;0.60;0.60;;;;;;;17.81;100.00;100653.22;5002189;28;20621;-52
2021/06/10 01:40:48;;;;;;;0.40;0.20;;;;;;;17.81;100.00;100655.91;4986235;28;20551;-53
2021/06/10 01:43:17;;;;;;;0.70;0.70;;;;;;;17.52;100.00;100652.88;4980056;28;20830;-52
2021/06/10 01:45:49;;;;;;;0.50;0.40;;;;;;;17.45;100.00;100652.34;4979631;28;20450;-53
2021/06/10 01:48:20;;;;;;;1.80;1.37;;;;;;;17.38;100.00;100650.91;5000766;28;20463;-53
2021/06/10 01:50:53;;;;;;;1.83;0.87;;;;;;;17.47;100.00;100641.50;4987396;28;20466;-52
2021/06/10 01:53:21;;;;;;;0.50;0.50;;;;;;;17.40;100.00;100634.69;4982659;28;20453;-52
2021/06/10 01:55:50;;;;;;;0.50;0.30;;;;;;;17.30;100.00;100633.44;4979852;28;20457;-53
2021/06/10 01:58:18;;;;;;;0.40;0.30;;;;;;;17.33;100.00;100634.16;4983151;28;20497;-53
2021/06/10 02:00:49;;;;;;;0.40;0.30;;;;;;;17.35;100.00;100632.25;4979842;28;20457;-53
2021/06/10 02:03:17;;;;;;;2.30;2.10;;;;;;;17.36;100.00;100627.75;4982427;28;20852;-52
2021/06/10 02:05:44;;;;;;;0.93;0.90;;;;;;;17.30;100.00;100628.94;4986199;28;21006;-53
2021/06/10 02:08:12;;;;;;;1.30;0.57;;;;;;;17.22;100.00;100639.19;4984315;28;20552;-53
2021/06/10 02:10:41;;;;;;;0.40;0.20;;;;;;;17.26;100.00;100635.41;4979693;28;20456;-52
2021/06/10 02:13:08;;;;;;;2.00;0.63;;;;;;;17.24;100.00;100629.25;4981192;28;20454;-52
2021/06/10 02:15:35;;;;;;;0.70;0.70;;;;;;;17.12;100.00;100635.22;4986283;28;20486;-52
2021/06/10 02:18:04;;;;;;;0.50;0.40;;;;;;;17.13;100.00;100642.34;4985450;28;20547;-52
2021/06/10 02:20:31;;;;;;;0.40;0.30;;;;;;;17.04;100.00;100637.44;4979636;28;20516;-52
2021/06/10 02:22:58;;;;;;;1.03;1.03;;;;;;;17.23;100.00;100646.31;4980142;28;20990;-53
2021/06/10 02:25:25;;;;;;;0.80;0.80;;;;;;;17.10;100.00;100645.19;5003555;28;20553;-52
2021/06/10 02:27:52;;;;;;;0.80;0.80;;;;;;;16.92;100.00;100643.41;4989224;28;20507;-53
2021/06/10 02:30:19;;;;;;;0.50;0.37;;;;;;;16.79;100.00;100645.81;4992979;28;20457;-53
2021/06/10 02:32:46;;;;;;;0.50;0.40;;;;;;;16.78;100.00;100641.41;4979175;28;20474;-53
2021/06/10 02:35:13;;;;;;;0.40;0.30;;;;;;;16.93;100.00;100646.03;4986010;28;20801;-52
2021/06/10 02:37:45;;;;;;;0.50;0.40;;;;;;;16.70;100.00;100647.13;5001457;28;20596;-52
2021/06/10 02:40:15;;;;;;;0.47;0.37;;;;;;;16.68;100.00;100650.84;4980739;28;20469;-53
2021/06/10 02:42:43;;;;;;;0.40;0.20;;;;;;;16.68;100.00;100645.47;4979449;28;20509;-52
2021/06/10 02:45:10;;;;;;;1.03;1.03;;;;;;;16.78;100.00;100647.66;4984261;28;20454;-53
2021/06/10 02:47:40;;;;;;;0.90;0.90;;;;;;;17.02;100.00;100650.94;5015603;22;20524;-55
2021/06/10 02:50:12;;;;;;;0.60;0.50;;;;;;;16.73;100.00;100655.06;5003558;28;20982;-55
2021/06/10 02:52:48;;;;;;;0.40;0.20;;;;;;;16.71;100.00;100638.13;5005843;28;20453;-56
2021/06/10 02:55:17;;;;;;;0.70;0.70;;;;;;;16.68;100.00;100646.34;5003718;28;20526;-55
2021/06/10 02:57:55;;;;;;;0.40;0.30;;;;;;;16.50;100.00;100647.19;5008552;28;20474;-55
2021/06/10 03:00:25;;;;;;;1.00;0.87;;;;;;;16.66;100.00;100650.00;5005850;28;20858;-55
2021/06/10 03:02:52;;;;;;;1.23;0.57;;;;;;;16.56;100.00;100639.69;5001522;28;20882;-55
2021/06/10 03:05:22;;;;;;;0.77;0.77;;;;;;;16.61;100.00;100650.25;5002894;28;20449;-55
2021/06/10 03:07:49;;;;;;;0.40;0.30;;;;;;;16.32;100.00;100643.56;4990273;28;20464;-55
2021/06/10 03:10:22;;;;;;;1.90;1.80;;;;;;;16.58;100.00;100642.31;5002136;28;20453;-55
2021/06/10 03:12:51;;;;;;;0.63;0.63;;;;;;;16.60;100.00;100651.19;5007356;28;20445;-55
2021/06/10 03:15:19;;;;;;;0.83;0.83;;;;;;;16.59;100.00;100650.31;5008539;28;20871;-55
2021/06/10 03:17:46;;;;;;;0.60;0.60;;;;;;;16.83;100.00;100637.53;5004618;28;20488;-55
2021/06/10 03:20:13;;;;;;;0.60;0.60;;;;;;;16.44;100.00;100642.97;5001136;28;20449;-55
2021/06/10 03:22:40;;;;;;;8.30;0.70;;;;;;;16.42;100.00;100641.31;5004744;28;20449;-55
2021/06/10 03:25:09;;;;;;;0.40;0.30;;;;;;;16.55;100.00;100640.66;5008518;28;20851;-55
2021/06/10 03:27:37;;;;;;;0.40;0.20;;;;;;;16.86;100.00;100636.53;5005831;28;20476;-55
2021/06/10 03:30:07;;;;;;;1.17;1.03;;;;;;;16.72;100.00;100649.72;5014828;28;20992;-56
2021/06/10 03:32:34;;;;;;;0.50;0.40;;;;;;;16.55;100.00;100643.34;5003752;28;20503;-56
2021/06/10 03:35:03;;;;;;;1.17;1.03;;;;;;;16.61;100.00;100644.88;5008279;28;20460;-55
2021/06/10 03:37:31;;;;;;;27.67;2.73;;;;;;;16.44;100.00;100652.81;5007276;28;20550;-56
2021/06/10 03:40:00;;;;;;;0.40;0.20;;;;;;;16.38;100.00;100648.63;5001577;28;20523;-55
2021/06/10 03:42:28;;;;;;;4.30;1.23;;;;;;;16.58;100.00;100645.91;5001925;28;21002;-56
2021/06/10 03:44:56;;;;;;;0.40;0.20;;;;;;;16.45;100.00;100651.91;5002142;28;20452;-56
2021/06/10 03:47:24;;;;;;;0.40;0.30;;;;;;;16.45;100.00;100652.78;5001533;28;20481;-56
2021/06/10 03:49:51;;;;;;;0.40;0.20;;;;;;;16.62;100.00;100653.78;5007276;28;20823;-55
2021/06/10 03:52:18;;;;;;;0.60;0.60;;;;;;;16.58;100.00;100651.25;5007848;28;21019;-56
2021/06/10 03:54:44;;;;;;;1.73;0.67;;;;;;;16.55;100.00;100654.06;5002675;28;20457;-55
2021/06/10 03:57:11;;;;;;;1.17;1.00;;;;;;;16.67;100.00;100644.59;5010409;28;20477;-56
2021/06/10 03:59:38;;;;;;;0.40;0.30;;;;;;;16.75;100.00;100645.13;5002913;28;20700;-56
2021/06/10 04:02:05;;;;;;;0.40;0.27;;;;;;;16.53;100.00;100649.72;5000043;28;20549;-56
2021/06/10 04:04:32;;;;;;;1.13;1.03;;;;;;;16.49;100.00;100653.50;5006550;28;20454;-56
2021/06/10 04:06:58;;;;;;;0.40;0.30;;;;;;;16.39;100.00;100647.69;5006400;28;20504;-56
2021/06/10 04:09:25;;;;;;;2.10;2.00;;;;;;;16.71;100.00;100648.00;5002878;28;20507;-56
2021/06/10 04:11:52;;;;;;;0.40;0.20;;;;;;;16.59;100.00;100652.13;5000997;28;20508;-56
2021/06/10 04:14:18;;;;;;;0.63;0.57;;;;;;;16.80;100.00;100643.06;5005511;28;20457;-55
2021/06/10 04:16:45;;;;;;;0.40;0.20;;;;;;;16.79;100.00;100651.19;5008160;28;20472;-55
2021/06/10 04:19:13;;;;;;;0.40;0.30;;;;;;;16.83;100.00;100650.09;5003182;28;20552;-55
2021/06/10 04:21:39;;;;;;;0.53;0.50;;;;;;;16.99;100.00;100650.22;5000797;28;20492;-56
2021/06/10 04:24:06;;;;;;;0.73;0.73;;;;;;;16.81;100.00;100647.47;5005157;28;20453;-56
2021/06/10 04:26:33;;;;;;;2.80;0.97;;;;;;;16.80;100.00;100656.50;5000872;28;20473;-56
2021/06/10 04:29:00;;;;;;;0.73;0.73;;;;;;;16.88;100.00;100658.81;5013640;28;20992;-54
2021/06/10 04:31:26;;;;;;;0.53;0.53;;;;;;;17.41;100.00;100657.97;5011611;28;20846;-54
2021/06/10 04:33:53;;;;;;;0.60;0.60;;;;;;;17.54;100.00;100660.88;5003523;28;20449;-56
2021/06/10 04:36:20;;;;;;;0.40;0.30;;;;;;;18.01;100.00;100656.59;5000468;28;20485;-56
2021/06/10 04:38:49;;;;;;;0.40;0.30;;;;;;;18.06;100.00;100664.41;5004654;28;20931;-56
2021/06/10 04:41:16;;;;;;;1.43;1.33;;;;;;;18.45;100.00;100664.09;5007490;28;20514;-56
2021/06/10 04:43:43;;;;;;;0.40;0.30;;;;;;;18.47;100.00;100666.69;5003381;28;20499;-57
2021/06/10 04:46:09;;;;;;;2.87;2.67;;;;;;;18.95;100.00;100668.50;5000348;28;20456;-57
2021/06/10 04:48:37;;;;;;;0.80;0.80;;;;;;;18.90;100.00;100667.88;5004073;28;20461;-57
2021/06/10 04:51:05;;;;;;;0.40;0.30;;;;;;;19.00;99.98;100673.63;5006930;28;20541;-56
2021/06/10 04:53:32;;;;;;;0.97;0.80;;;;;;;19.27;98.90;100671.16;5004094;28;20877;-56
2021/06/10 04:55:58;;;;;;;3.13;2.10;;;;;;;19.62;97.00;100666.41;5000255;28;20460;-56
2021/06/10 04:58:25;;;;;;;0.40;0.20;;;;;;;19.72;96.74;100668.44;5002320;28;20520;-57
2021/06/10 05:00:52;;;;;;;0.53;0.40;;;;;;;19.68;96.65;100668.72;5007384;28;20453;-56
2021/06/10 05:03:22;;;;;;;1.67;1.67;;;;;;;20.07;94.94;100669.00;5004220;28;20809;-56
2021/06/10 05:05:49;;;;;;;3.43;1.43;;;;;;;20.02;94.32;100671.13;4999653;28;20453;-57
2021/06/10 05:08:16;;;;;;;3.70;1.50;;;;;;;20.14;94.99;100677.56;5002101;28;20473;-55
2021/06/10 05:10:43;;;;;;;0.80;0.80;;;;;;;20.36;94.60;100674.41;5006915;28;20488;-56
2021/06/10 05:13:10;;;;;;;0.50;0.50;;;;;;;20.34;93.57;100677.19;5004810;28;20452;-57
2021/06/10 05:15:37;;;;;;;0.50;0.40;;;;;;;20.32;92.38;100668.34;4998694;28;20456;-57
2021/06/10 05:18:04;;;;;;;0.70;0.70;;;;;;;20.63;92.15;100679.91;5001508;28;20476;-57
2021/06/10 05:20:31;;;;;;;1.00;0.83;;;;;;;20.80;91.61;100685.09;5006212;28;20493;-57
2021/06/10 05:22:58;;;;;;;0.50;0.40;;;;;;;20.89;91.77;100680.94;5005264;28;20506;-56
2021/06/10 05:25:24;;;;;;;0.50;0.20;;;;;;;20.90;92.12;100690.78;4996036;28;20941;-56
2021/06/10 05:27:51;;;;;;;0.50;0.30;;;;;;;20.81;92.13;100686.81;5005469;28;20542;-56
2021/06/10 05:30:19;;;;;;;0.60;0.60;;;;;;;21.69;88.83;100674.69;5012794;28;20440;-57
2021/06/10 05:32:45;;;;;;;0.83;0.83;;;;;;;21.21;89.87;100684.22;4999563;28;20553;-57
2021/06/10 05:35:12;;;;;;;1.90;1.70;;;;;;;21.41;89.72;100683.81;5006096;28;20507;-57
2021/06/10 05:37:39;;;;;;;0.97;0.97;;;;;;;21.38;90.33;100677.72;5005991;28;20849;-56
2021/06/10 05:40:08;;;;;;;1.23;1.23;;;;;;;21.48;87.93;100671.59;5000414;28;20582;-56
2021/06/10 05:42:35;;;;;;;0.50;0.40;;;;;;;21.52;87.92;100678.53;4999299;28;20820;-56
2021/06/10 05:45:03;;;;;;;1.37;1.27;;;;;;;21.35;88.73;100684.19;5004646;28;20833;-57
2021/06/10 05:47:30;;;;;;;0.63;0.63;;;;;;;21.59;88.55;100679.84;5005646;28;20488;-56
2021/06/10 05:49:56;;;;;;;0.60;0.50;;;;;;;21.75;88.32;100685.06;5001463;28;20790;-56
2021/06/10 05:52:24;;;;;;;0.70;0.50;;;;;;;21.73;88.29;100683.44;4999322;28;20488;-56
2021/06/10 05:54:51;;;;;;;2.40;2.20;;;;;;;21.80;88.98;100679.34;5003856;28;20462;-56
2021/06/10 05:57:17;;;;;;;0.50;0.40;;;;;;;21.69;89.68;100684.63;5006037;28;20476;-56
2021/06/10 05:59:47;;;;;;;0.50;0.30;;;;;;;21.50;91.41;100682.28;5001519;28;20550;-57
2021/06/10 06:02:18;;;;;;;0.80;0.80;;;;;;;21.87;88.77;100673.41;4999073;28;20503;-57
2021/06/10 06:04:45;;;;;;;0.60;0.60;;;;;;;22.09;88.80;100677.34;5002467;28;20449;-57
2021/06/10 06:07:12;;;;;;;0.70;0.60;;;;;;;22.21;87.75;100679.22;5005354;28;21016;-57
2021/06/10 06:09:39;;;;;;;0.40;0.30;;;;;;;22.09;86.94;100677.34;5002026;28;20494;-56
2021/06/10 06:12:11;;;;;;;1.93;1.07;;;;;;;22.45;86.61;100682.84;4999108;28;20453;-56
2021/06/10 06:14:41;;;;;;;1.00;0.97;;;;;;;22.67;85.67;100679.47;5000795;28;20449;-57
2021/06/10 06:17:09;;;;;;;2.23;2.17;;;;;;;22.76;85.16;100677.94;5004625;28;20523;-57
2021/06/10 06:19:36;;;;;;;0.60;0.60;;;;;;;22.84;85.29;100682.81;5004908;28;20540;-56
2021/06/10 06:22:05;;;;;;;0.80;0.80;;;;;;;22.70;85.03;100681.09;4998634;28;20484;-57
2021/06/10 06:24:32;;;;;;;0.50;0.40;;;;;;;22.85;84.89;100681.84;4999769;28;20461;-56
2021/06/10 06:26:59;;;;;;;1.00;0.77;;;;;;;23.10;84.23;100694.47;5002458;28;20468;-56
2021/06/10 06:29:26;;;;;;;0.40;0.20;;;;;;;23.27;83.55;100684.06;5011997;28;20503;-57
2021/06/10 06:31:53;;;;;;;2.03;1.03;;;;;;;23.40;82.16;100689.44;5006104;28;20453;-57
2021/06/10 06:34:20;;;;;;;0.50;0.50;;;;;;;23.58;81.96;100684.53;5005286;28;20448;-57
2021/06/10 06:36:47;;;;;;;1.47;0.90;;;;;;;23.39;80.60;100690.44;5012495;28;20483;-57
2021/06/10 06:39:14;;;;;;;1.60;0.77;;;;;;;23.56;79.33;100695.44;5002887;28;20539;-56
2021/06/10 06:41:41;;;;;;;0.67;0.57;;;;;;;23.54;79.78;100688.41;5002700;28;20453;-57
2021/06/10 06:44:08;;;;;;;0.50;0.30;;;;;;;23.64;80.47;100684.91;5002867;28;21017;-56
2021/06/10 06:46:35;;;;;;;0.63;0.57;;;;;;;23.67;78.90;100686.50;5001565;28;20548;-57
2021/06/10 06:49:03;;;;;;;3.00;1.23;;;;;;;23.77;76.92;100690.25;5002919;28;20507;-57
2021/06/10 06:51:31;;;;;;;0.50;0.50;;;;;;;24.01;77.03;100692.06;4989439;28;20456;-57
2021/06/10 06:53:58;;;;;;;0.70;0.70;;;;;;;24.07;76.93;100689.72;5002332;28;20457;-56
2021/06/10 06:56:25;;;;;;;1.50;1.50;;;;;;;23.91;77.67;100681.91;5011754;28;20472;-57
2021/06/10 06:58:52;;;;;;;0.63;0.47;;;;;;;24.25;76.83;100684.66;5002257;28;20965;-57
2021/06/10 07:01:20;;;;;;;0.50;0.30;;;;;;;24.16;76.09;100682.69;5008799;28;20420;-56
2021/06/10 07:03:47;;;;;;;1.77;1.67;;;;;;;24.29;76.17;100679.88;5008805;28;20844;-57
2021/06/10 07:06:14;;;;;;;0.57;0.57;;;;;;;24.54;73.77;100682.41;5003474;28;20941;-57
2021/06/10 07:08:41;;;;;;;5.30;2.20;;;;;;;24.60;74.66;100691.91;5002251;28;20453;-56
2021/06/10 07:11:08;;;;;;;3.23;1.63;;;;;;;25.02;73.77;100701.16;5007640;28;20453;-57
2021/06/10 07:13:34;;;;;;;1.77;1.67;;;;;;;25.03;73.08;100689.28;5009148;28;20456;-57
2021/06/10 07:16:01;;;;;;;3.13;1.03;;;;;;;24.47;74.22;100692.88;5003678;28;20448;-58
2021/06/10 07:18:30;;;;;;;1.00;1.00;;;;;;;24.75;74.04;100688.78;5002118;28;20453;-57
2021/06/10 07:20:56;;;;;;;5.20;3.23;;;;;;;24.62;75.01;100692.63;5006737;28;20527;-57
2021/06/10 07:23:23;;;;;;;15.97;0.93;;;;;;;24.84;72.95;100692.63;5008382;28;20455;-57
2021/06/10 07:25:51;;;;;;;0.50;0.40;;;;;;;25.00;73.18;100687.69;4998091;28;20496;-57
2021/06/10 07:28:17;;;;;;;0.87;0.80;;;;;;;25.21;71.84;100690.47;5009657;28;20465;-57
2021/06/10 07:30:45;;;;;;;1.77;1.67;;;;;;;25.29;73.03;100692.56;5015028;28;20449;-58
2021/06/10 07:33:12;;;;;;;4.00;2.73;;;;;;;25.26;69.65;100687.38;5001712;28;20514;-57
2021/06/10 07:35:39;;;;;;;3.80;3.60;;;;;;;25.29;70.43;100684.41;5005231;28;20449;-57
2021/06/10 07:38:09;;;;;;;1.37;0.90;;;;;;;25.19;70.33;100692.47;5008408;28;20485;-57
2021/06/10 07:40:37;;;;;;;1.43;1.33;;;;;;;25.45;72.59;100694.84;5005963;28;20630;-57
2021/06/10 07:43:04;;;;;;;2.20;2.10;;;;;;;25.06;70.77;100691.75;5001723;28;20423;-57
2021/06/10 07:45:31;;;;;;;2.30;0.97;;;;;;;25.46;71.17;100691.13;5003996;28;20923;-57
2021/06/10 07:47:59;;;;;;;0.60;0.60;;;;;;;25.60;71.09;100690.84;5007445;28;20485;-57
2021/06/10 07:50:26;;;;;;;9.73;1.23;;;;;;;25.63;71.17;100690.56;5006139;28;20470;-57
2021/06/10 07:52:53;;;;;;;1.80;1.63;;;;;;;25.66;69.91;100696.63;5001667;28;20514;-57
2021/06/10 07:55:21;;;;;;;0.70;0.70;;;;;;;25.47;69.62;100696.44;5001502;28;20424;-57
2021/06/10 07:57:49;;;;;;;3.07;2.87;;;;;;;25.67;70.10;100701.09;5008044;28;20572;-57
2021/06/10 08:00:18;;;;;;;3.97;1.23;;;;;;;25.51;71.38;100703.38;5006140;28;20509;-57
2021/06/10 08:02:45;;;;;;;0.93;0.93;;;;;;;25.84;69.79;100702.41;5001046;28;20498;-56
2021/06/10 08:05:12;;;;;;;1.30;1.27;;;;;;;25.73;70.90;100705.16;5001885;28;20477;-57
2021/06/10 08:07:43;;;;;;;0.60;0.53;;;;;;;25.94;69.73;100697.88;5008011;28;20448;-57
2021/06/10 08:10:13;;;;;;;0.50;0.40;;;;;;;26.52;67.19;100698.25;5008133;28;20490;-56
2021/06/10 08:12:46;;;;;;;0.50;0.37;;;;;;;26.70;67.06;100698.47;5002989;28;20448;-56
2021/06/10 08:15:13;;;;;;;0.60;0.57;;;;;;;26.29;68.26;100702.97;5000558;28;20508;-56
2021/06/10 08:17:40;;;;;;;2.20;1.33;;;;;;;26.44;68.03;100697.19;5004926;28;20498;-56
2021/06/10 08:20:09;;;;;;;1.10;1.07;;;;;;;26.10;66.43;100704.72;5007252;28;20996;-57
2021/06/10 08:22:36;;;;;;;0.70;0.50;;;;;;;26.14;67.41;100704.31;5002005;28;20488;-57
2021/06/10 08:25:05;;;;;;;1.37;1.37;;;;;;;25.84;68.66;100701.53;5000757;28;20432;-57
2021/06/10 08:27:32;;;;;;;0.97;0.97;;;;;;;26.35;68.39;100698.88;4988734;28;20482;-57
2021/06/10 08:29:59;;;;;;;0.50;0.50;;;;;;;26.79;67.36;100699.53;4996447;28;20449;-58
2021/06/10 08:32:25;;;;;;;0.70;0.67;;;;;;;26.88;67.99;100697.84;5003881;28;20454;-57
2021/06/10 08:34:53;;;;;;;6.33;0.97;;;;;;;27.02;66.56;100695.63;5007539;28;20453;-57
2021/06/10 08:37:20;;;;;;;1.50;1.43;;;;;;;26.17;68.74;100695.88;5004542;28;20476;-57
2021/06/10 08:39:46;;;;;;;1.43;1.40;;;;;;;26.73;69.07;100686.44;5000208;28;20471;-57
2021/06/10 08:42:15;;;;;;;2.50;1.23;;;;;;;26.38;69.56;100692.31;5003362;28;20487;-57
2021/06/10 08:44:43;;;;;;;1.37;1.23;;;;;;;26.42;69.86;100691.03;5007566;28;20449;-56
2021/06/10 08:47:12;;;;;;;4.43;1.50;;;;;;;27.33;67.78;100692.81;5006270;28;20491;-57
2021/06/10 08:49:44;;;;;;;0.50;0.50;;;;;;;27.45;66.09;100683.47;5000383;28;20440;-57
2021/06/10 08:52:12;;;;;;;0.67;0.67;;;;;;;27.38;65.77;100688.63;5001199;28;20508;-57
2021/06/10 08:54:40;;;;;;;1.00;0.90;;;;;;;27.91;64.71;100682.75;5006954;28;20461;-57
2021/06/10 08:57:10;;;;;;;0.87;0.87;;;;;;;27.44;66.16;100689.94;5006267;28;20509;-57
2021/06/10 08:59:37;;;;;;;2.20;2.10;;;;;;;27.13;66.93;100687.28;4987897;28;20470;-57
2021/06/10 09:02:07;;;;;;;0.70;0.70;;;;;;;26.76;66.68;100689.75;5000498;28;20449;-58
2021/06/10 09:04:34;;;;;;;0.50;0.47;;;;;;;27.85;64.56;100683.34;5006324;28;20432;-57
2021/06/10 09:07:03;;;;;;;1.57;0.87;;;;;;;27.64;63.74;100682.63;5006789;28;20458;-58
2021/06/10 09:09:39;;;;;;;0.53;0.53;;;;;;;26.96;64.02;100684.34;5001598;28;20798;-58
2021/06/10 09:12:08;;;;;;;0.60;0.60;;;;;;;28.09;63.11;100680.13;5000548;28;20436;-56
2021/06/10 09:14:56;;;;;;;0.50;0.30;;;;;;;28.17;62.28;100684.88;5003648;28;20424;-57
2021/06/10 09:17:32;;;;;;;0.90;0.90;;;;;;;28.16;61.07;100680.41;5006590;28;20975;-57
2021/06/10 09:20:00;;;;;;;0.50;0.50;;;;;;;28.51;59.84;100685.22;5006233;28;20927;-57
2021/06/10 09:22:39;;;;;;;0.50;0.50;;;;;;;28.15;60.49;100681.44;5002701;28;20848;-57
2021/06/10 09:25:11;;;;;;;0.57;0.53;;;;;;;27.78;61.96;100684.94;4999645;28;20465;-57
2021/06/10 09:28:04;;;;;;;1.23;0.77;;;;;;;27.67;61.30;100685.06;5003406;28;20964;-58
2021/06/10 09:30:34;;;;;;;2.60;2.27;;;;;;;27.30;59.98;100676.72;4990055;28;20451;-57
2021/06/10 09:33:05;;;;;;;5.23;4.37;;;;;;;27.37;60.84;100680.56;4998772;28;20528;-57
2021/06/10 09:35:35;;;;;;;0.73;0.73;;;;;;;28.21;60.37;100686.28;5003523;28;20445;-57
2021/06/10 09:38:08;;;;;;;2.53;2.43;;;;;;;27.99;59.26;100685.63;5006356;28;20489;-57
2021/06/10 09:40:36;;;;;;;0.50;0.30;;;;;;;27.74;59.83;100686.25;5003861;28;20488;-58
2021/06/10 09:43:04;;;;;;;0.50;0.30;;;;;;;27.67;57.88;100683.19;4999718;28;20460;-57
2021/06/10 09:45:31;;;;;;;2.10;1.40;;;;;;;27.28;58.46;100690.50;5001403;28;20507;-57
2021/06/10 09:48:04;;;;;;;2.67;1.50;;;;;;;27.61;58.16;100683.75;5005902;28;20498;-57
2021/06/10 09:50:43;;;;;;;1.57;1.47;;;;;;;27.61;57.72;100681.03;5004359;28;20449;-58
2021/06/10 09:53:20;;;;;;;6.23;2.83;;;;;;;27.68;57.88;100674.00;5004788;28;20799;-57
2021/06/10 09:56:04;;;;;;;0.77;0.77;;;;;;;28.33;57.57;100672.34;5005634;28;20844;-58
2021/06/10 09:58:39;;;;;;;0.60;0.57;;;;;;;28.10;57.71;100686.47;5000325;28;20507;-57
2021/06/10 10:01:16;;;;;;;0.87;0.87;;;;;;;28.79;54.83;100680.66;5005751;28;20548;-57
2021/06/10 10:03:46;;;;;;;0.60;0.60;;;;;;;28.68;55.84;100678.13;5006760;28;20427;-57
2021/06/10 10:06:20;;;;;;;0.50;0.30;;;;;;;29.34;55.47;100676.03;5004518;28;20439;-57
2021/06/10 10:08:50;;;;;;;1.23;1.23;;;;;;;29.71;51.84;100664.91;5005918;28;20429;-57
2021/06/10 10:11:18;;;;;;;0.90;0.90;;;;;;;29.55;50.27;100667.53;5001661;28;20444;-57
2021/06/10 10:13:47;;;;;;;1.53;1.43;;;;;;;28.90;52.61;100675.84;4997733;28;20872;-57
2021/06/10 10:16:15;;;;;;;0.63;0.53;;;;;;;28.80;52.63;100671.44;5002067;28;20478;-57
2021/06/10 10:18:43;;;;;;;5.90;2.37;;;;;;;29.34;51.57;100672.44;5005655;28;20785;-57
2021/06/10 10:21:10;;;;;;;0.60;0.60;;;;;;;29.69;45.57;100658.75;5003660;28;20517;-56
2021/06/10 10:23:37;;;;;;;0.50;0.40;;;;;;;28.61;44.01;100666.91;4998920;28;20851;-57
2021/06/10 10:26:06;;;;;;;1.47;1.37;;;;;;;28.20;49.02;100663.56;5001209;28;20453;-57
2021/06/10 10:28:36;;;;;;;0.50;0.30;;;;;;;28.53;49.83;100661.34;5010700;28;20449;-57
2021/06/10 10:31:10;;;;;;;0.83;0.83;;;;;;;29.32;47.33;100660.75;5012477;28;20546;-57
2021/06/10 10:33:46;;;;;;;0.50;0.33;;;;;;;29.05;44.97;100657.03;5005634;28;20449;-57
2021/06/10 10:36:31;;;;;;;0.50;0.40;;;;;;;29.02;46.24;100645.53;5004989;28;20492;-56
2021/06/10 10:39:00;;;;;;;1.37;1.33;;;;;;;29.06;45.96;100652.44;5001365;28;20507;-58
2021/06/10 10:41:28;;;;;;;7.60;0.87;;;;;;;29.24;45.82;100645.09;5005627;28;20467;-57
2021/06/10 10:44:26;;;;;;;0.90;0.90;;;;;;;28.76;44.90;100642.63;5003656;28;20928;-57
2021/06/10 10:46:59;;;;;;;0.60;0.40;;;;;;;28.89;42.54;100648.63;5000798;28;20849;-57
2021/06/10 10:49:38;;;;;;;0.60;0.40;;;;;;;29.73;42.73;100646.44;5005614;28;20424;-57
2021/06/10 10:52:13;;;;;;;0.50;0.30;;;;;;;29.43;44.05;100633.13;5003731;28;20798;-55
2021/06/10 10:54:42;;;;;;;0.60;0.50;;;;;;;29.96;42.61;100630.34;4998263;28;20434;-56
2021/06/10 10:57:30;;;;;;;0.50;0.37;;;;;;;29.82;43.26;100627.31;5008224;28;20468;-56
2021/06/10 10:59:57;;;;;;;1.13;1.03;;;;;;;29.41;46.04;100632.41;5002730;28;20910;-55
2021/06/10 11:02:26;;;;;;;0.50;0.40;;;;;;;29.92;43.54;100630.81;5004933;28;20427;-55
2021/06/10 11:04:56;;;;;;;0.50;0.40;;;;;;;29.91;41.63;100627.22;5001999;28;20479;-55
2021/06/10 11:07:35;;;;;;;0.50;0.47;;;;;;;29.79;42.54;100623.88;4998604;28;20447;-57
2021/06/10 11:10:10;;;;;;;0.53;0.40;;;;;;;30.30;42.07;100622.19;4999768;28;20507;-57
2021/06/10 11:12:53;;;;;;;0.50;0.30;;;;;;;30.22;42.65;100616.66;4985891;28;20422;-57
2021/06/10 11:15:26;;;;;;;2.23;0.67;;;;;;;30.08;43.40;100620.84;4998433;28;20872;-57
2021/06/10 11:17:57;;;;;;;1.40;0.97;;;;;;;30.28;40.98;100615.13;5002798;28;20469;-57
2021/06/10 11:20:42;;;;;;;1.03;1.03;;;;;;;30.22;40.79;100616.66;5003838;28;21084;-58
2021/06/10 11:23:17;;;;;;;0.50;0.30;;;;;;;29.94;41.90;100624.16;5003483;28;20456;-57
2021/06/10 11:25:46;;;;;;;3.67;1.93;;;;;;;29.99;40.93;100616.28;5008038;28;20488;-57
2021/06/10 11:28:16;;;;;;;20.97;2.80;;;;;;;29.72;40.48;100613.69;5009649;28;20446;-57
2021/06/10 11:30:45;;;;;;;0.90;0.80;;;;;;;30.43;42.04;100607.13;5015077;28;20935;-57